Mud Lake, Idaho
Current Conditions -  °F | °C
As of 12:53 AM on Thursday 27 Nov 2014 (Local Time) from KIDA Reporting Station
Clear Clear  
Wind Chill: 40°   Ceiling: Unl
Heat Index: 40°   Visibility: 10mi
Dew Point: 31°   Wind: 3mph
Humidity: 70%   Direction: 200°SSW
Pressure: 30.24"   Gusts: NA
Location:  43.8119°N, 112.46°W
Report Text: KIDA 270753Z AUTO 20003KT 10SM CLR 04/M01 A3024 RMK AO2 SLP242 T00441006
Loading
Personal Weather Stations






























Interactive Weather Map New forecast layout! Learn more

10-Day Weather Forecast

Advertisements
Track Severe Weather on mobile